createdAt,value
2022-11-15T00:00:23.674Z,11.10
2022-11-15T00:03:11.620Z,11.10
2022-11-15T00:06:04.784Z,11.10
2022-11-15T00:08:52.814Z,11.10
2022-11-15T00:11:40.919Z,11.10
2022-11-15T00:14:28.896Z,11.10
2022-11-15T00:17:16.848Z,11.10
2022-11-15T00:20:05.448Z,11.10
2022-11-15T00:22:55.017Z,11.10
2022-11-15T00:25:42.872Z,11.20
2022-11-15T00:28:30.946Z,11.10
2022-11-15T00:31:18.819Z,11.10
2022-11-15T00:34:06.751Z,11.10
2022-11-15T00:36:54.625Z,11.10
2022-11-15T00:39:44.001Z,11.10
2022-11-15T00:42:31.906Z,11.10
2022-11-15T00:45:19.757Z,11.10
2022-11-15T00:48:07.706Z,11.10
2022-11-15T00:50:55.566Z,11.10
2022-11-15T00:53:43.458Z,11.20
2022-11-15T00:56:32.725Z,11.20
2022-11-15T00:59:20.629Z,11.20
2022-11-15T01:02:08.588Z,11.20
2022-11-15T01:04:57.447Z,11.20
2022-11-15T01:07:45.526Z,11.20
2022-11-15T01:10:33.427Z,11.20
2022-11-15T01:13:22.711Z,11.10
2022-11-15T01:16:11.949Z,11.10
2022-11-15T01:18:59.914Z,11.10
2022-11-15T01:21:47.823Z,11.10
2022-11-15T01:24:35.784Z,11.20
2022-11-15T01:27:23.780Z,11.20
2022-11-15T01:30:13.533Z,11.10
2022-11-15T01:33:01.531Z,11.10
2022-11-15T01:35:49.408Z,11.10
2022-11-15T01:38:37.282Z,11.20
2022-11-15T01:41:26.346Z,11.10
2022-11-15T01:44:33.175Z,11.20
2022-11-15T01:47:24.323Z,11.10
2022-11-15T01:50:14.287Z,11.10
2022-11-15T01:53:02.152Z,11.20
2022-11-15T01:55:50.060Z,11.10
2022-11-15T01:58:38.079Z,11.10
2022-11-15T02:01:27.063Z,11.10
2022-11-15T02:04:17.936Z,11.10
2022-11-15T02:07:06.794Z,11.10
2022-11-15T02:09:54.910Z,11.10
2022-11-15T02:12:43.434Z,11.10
2022-11-15T02:15:36.405Z,11.10
2022-11-15T02:18:28.507Z,11.10
2022-11-15T02:21:24.650Z,11.10
2022-11-15T02:24:26.980Z,11.00
2022-11-15T02:27:48.197Z,11.00
2022-11-15T02:30:43.676Z,11.00
2022-11-15T02:33:36.533Z,11.00
2022-11-15T02:36:29.963Z,11.00
2022-11-15T02:39:21.234Z,11.00
2022-11-15T02:42:30.885Z,10.90
2022-11-15T02:45:19.141Z,10.90
2022-11-15T02:48:09.382Z,10.90
2022-11-15T02:50:57.576Z,10.90
2022-11-15T02:53:45.531Z,10.90
2022-11-15T02:56:33.860Z,10.90
2022-11-15T02:59:29.887Z,10.90
2022-11-15T03:02:26.135Z,10.90
2022-11-15T03:05:20.213Z,10.90
2022-11-15T03:08:10.828Z,10.90
2022-11-15T03:11:04.896Z,10.90
2022-11-15T03:13:58.533Z,10.90
2022-11-15T03:16:49.732Z,10.90
2022-11-15T03:19:41.266Z,10.90
2022-11-15T03:22:31.688Z,10.90
2022-11-15T03:25:21.564Z,10.90
2022-11-15T03:28:11.636Z,10.90
2022-11-15T03:31:01.203Z,11.00
2022-11-15T03:33:49.125Z,11.00
2022-11-15T03:36:37.313Z,11.00
2022-11-15T03:39:27.421Z,10.90
2022-11-15T03:42:20.837Z,11.00
2022-11-15T03:45:12.861Z,11.00
2022-11-15T03:48:02.088Z,11.00
2022-11-15T03:50:50.362Z,11.10
2022-11-15T03:53:38.256Z,11.10
2022-11-15T03:56:27.552Z,11.10
2022-11-15T03:59:15.476Z,11.10
2022-11-15T04:02:03.390Z,11.10
2022-11-15T04:04:51.288Z,11.10
2022-11-15T04:07:39.214Z,11.10
2022-11-15T04:10:27.397Z,11.10
2022-11-15T04:13:16.672Z,11.10
2022-11-15T04:16:04.668Z,11.10
2022-11-15T04:19:12.594Z,11.10
2022-11-15T04:22:18.130Z,11.20
2022-11-15T04:25:06.415Z,11.20
2022-11-15T04:27:54.314Z,11.20
2022-11-15T04:30:43.595Z,11.20
2022-11-15T04:33:31.751Z,11.20
2022-11-15T04:36:37.689Z,11.20
2022-11-15T04:39:25.853Z,11.20
2022-11-15T04:42:13.741Z,11.20
2022-11-15T04:45:03.109Z,11.20
2022-11-15T04:47:52.413Z,11.20
2022-11-15T04:50:40.265Z,11.20
2022-11-15T04:53:28.176Z,11.20
2022-11-15T04:56:16.048Z,11.20
2022-11-15T04:59:03.915Z,11.30
2022-11-15T05:01:51.794Z,11.20
2022-11-15T05:04:40.880Z,11.20
2022-11-15T05:07:28.910Z,11.30
2022-11-15T05:10:17.004Z,11.30
2022-11-15T05:13:04.907Z,11.30
2022-11-15T05:15:52.937Z,11.30
2022-11-15T05:18:41.689Z,11.20
2022-11-15T05:21:31.257Z,11.20
2022-11-15T05:24:19.206Z,11.20
2022-11-15T05:27:07.102Z,11.20
2022-11-15T05:29:54.944Z,11.10
2022-11-15T05:32:42.806Z,11.10
2022-11-15T05:35:33.505Z,11.10
2022-11-15T05:38:23.093Z,11.00
2022-11-15T05:41:11.387Z,11.00
2022-11-15T05:43:59.898Z,11.00
2022-11-15T05:46:48.068Z,11.00
2022-11-15T05:49:37.414Z,11.00
2022-11-15T05:52:27.668Z,10.90
2022-11-15T05:55:17.271Z,10.90
2022-11-15T05:58:05.113Z,11.00
2022-11-15T06:00:53.023Z,10.90
2022-11-15T06:03:40.958Z,10.90
2022-11-15T06:06:29.320Z,10.90
2022-11-15T06:09:17.205Z,10.80
2022-11-15T06:12:07.019Z,10.90
2022-11-15T06:14:54.889Z,10.80
2022-11-15T06:17:42.810Z,10.80
2022-11-15T06:20:31.252Z,10.90
2022-11-15T06:23:19.218Z,10.80
2022-11-15T06:26:07.364Z,10.80
2022-11-15T06:28:59.792Z,10.80
2022-11-15T06:31:47.680Z,10.80
2022-11-15T06:34:36.809Z,10.80
2022-11-15T06:37:24.733Z,10.80
2022-11-15T06:40:13.100Z,10.80
2022-11-15T06:43:01.398Z,10.80
2022-11-15T06:45:50.654Z,10.80
2022-11-15T06:48:38.545Z,10.80
2022-11-15T06:51:26.440Z,10.60
2022-11-15T06:54:14.318Z,10.80
2022-11-15T06:57:02.180Z,10.80
2022-11-15T06:59:50.023Z,10.80
2022-11-15T07:02:39.315Z,10.80
2022-11-15T07:05:27.155Z,10.80
2022-11-15T07:08:15.052Z,10.80
2022-11-15T07:11:03.692Z,10.80
2022-11-15T07:13:51.571Z,10.80
2022-11-15T07:16:39.583Z,10.80
2022-11-15T07:19:28.821Z,10.90
2022-11-15T07:22:16.775Z,10.90
2022-11-15T07:25:06.263Z,10.90
2022-11-15T07:27:56.456Z,10.90
2022-11-15T07:30:45.473Z,10.90
2022-11-15T07:33:34.593Z,11.00
2022-11-15T07:36:24.197Z,11.00
2022-11-15T07:39:15.929Z,11.00
2022-11-15T07:42:21.690Z,11.00
2022-11-15T07:45:09.910Z,11.10
2022-11-15T07:47:58.185Z,11.10
2022-11-15T07:50:46.344Z,11.10
2022-11-15T07:53:35.592Z,11.20
2022-11-15T07:56:23.623Z,11.20
2022-11-15T07:59:11.483Z,11.20
2022-11-15T08:01:59.515Z,11.20
2022-11-15T08:04:47.828Z,11.30
2022-11-15T08:07:35.805Z,11.30
2022-11-15T08:10:25.405Z,11.30
2022-11-15T08:13:13.934Z,11.30
2022-11-15T08:16:08.873Z,11.30
2022-11-15T08:19:20.274Z,11.30
2022-11-15T08:22:11.616Z,11.30
2022-11-15T08:25:03.164Z,11.30
2022-11-15T08:27:59.444Z,11.40
2022-11-15T08:30:50.957Z,11.40
2022-11-15T08:33:42.594Z,11.40
2022-11-15T08:36:43.020Z,11.40
2022-11-15T08:39:37.309Z,11.50
2022-11-15T08:42:29.444Z,11.50
2022-11-15T08:45:23.527Z,11.50
2022-11-15T08:48:21.203Z,11.50
2022-11-15T08:51:19.875Z,11.60
2022-11-15T08:54:08.737Z,11.60
2022-11-15T08:57:00.550Z,11.60
2022-11-15T08:59:53.218Z,11.70
2022-11-15T09:02:43.111Z,11.70
2022-11-15T09:05:42.162Z,11.70
2022-11-15T09:08:46.989Z,11.70
2022-11-15T09:11:42.546Z,11.80
2022-11-15T09:14:33.038Z,11.80
2022-11-15T09:17:24.697Z,11.80
2022-11-15T09:20:17.200Z,11.90
2022-11-15T09:23:12.586Z,11.90
2022-11-15T09:26:02.113Z,11.90
2022-11-15T09:28:50.623Z,11.90
2022-11-15T09:31:46.372Z,11.90
2022-11-15T09:34:41.064Z,11.90
2022-11-15T09:37:35.973Z,11.90
2022-11-15T09:40:25.124Z,12.00
2022-11-15T09:43:26.164Z,12.10
2022-11-15T09:46:17.757Z,12.20
2022-11-15T09:49:09.218Z,12.20
2022-11-15T09:51:59.515Z,12.20
2022-11-15T09:54:53.777Z,12.30
2022-11-15T09:57:50.541Z,12.30
2022-11-15T10:00:48.597Z,12.30
2022-11-15T10:03:38.809Z,12.40
2022-11-15T10:06:28.481Z,12.40
2022-11-15T10:09:30.327Z,12.40
2022-11-15T10:12:27.072Z,12.50
2022-11-15T10:15:23.812Z,12.60
2022-11-15T10:18:20.479Z,12.70
2022-11-15T10:21:15.888Z,12.80
2022-11-15T10:24:08.742Z,12.90
2022-11-15T10:26:58.007Z,12.90
2022-11-15T10:29:48.903Z,12.90
2022-11-15T10:32:38.888Z,12.90
2022-11-15T10:35:35.322Z,13.00
2022-11-15T10:38:30.362Z,13.00
2022-11-15T10:41:21.971Z,13.10
2022-11-15T10:44:13.392Z,13.10
2022-11-15T10:47:22.535Z,13.10
2022-11-15T10:50:28.978Z,13.10
2022-11-15T10:53:22.573Z,13.20
2022-11-15T10:56:20.443Z,13.20
2022-11-15T10:59:27.937Z,13.20
2022-11-15T11:02:46.227Z,13.30
2022-11-15T11:05:42.975Z,13.30
2022-11-15T11:08:36.150Z,13.30
2022-11-15T11:11:26.075Z,13.30
2022-11-15T11:14:23.333Z,13.30
2022-11-15T11:17:33.251Z,13.30
2022-11-15T11:20:40.886Z,13.40
2022-11-15T11:23:48.680Z,13.50
2022-11-15T11:26:44.590Z,13.40
2022-11-15T11:29:42.234Z,13.50
2022-11-15T11:32:46.326Z,13.50
2022-11-15T11:35:38.022Z,13.50
2022-11-15T11:38:43.252Z,13.60
2022-11-15T11:41:47.165Z,13.70
2022-11-15T11:44:40.912Z,13.80
2022-11-15T11:47:34.862Z,13.80
2022-11-15T11:50:28.179Z,13.80
2022-11-15T11:53:17.479Z,13.80
2022-11-15T11:56:13.814Z,13.80
2022-11-15T11:59:04.305Z,13.80
2022-11-15T12:01:52.483Z,13.90
2022-11-15T12:04:42.444Z,13.90
2022-11-15T12:07:33.453Z,14.00
2022-11-15T12:10:24.494Z,14.10
2022-11-15T12:13:15.405Z,14.10
2022-11-15T12:16:09.262Z,14.10
2022-11-15T12:19:00.779Z,14.10
2022-11-15T12:21:51.877Z,14.10
2022-11-15T12:24:41.629Z,14.20
2022-11-15T12:27:34.829Z,14.30
2022-11-15T12:30:24.693Z,14.30
2022-11-15T12:33:27.520Z,14.20
2022-11-15T12:36:35.209Z,14.30
2022-11-15T12:39:43.148Z,14.30
2022-11-15T12:42:38.514Z,14.30
2022-11-15T12:45:29.602Z,14.30
2022-11-15T12:48:48.147Z,14.30
2022-11-15T12:52:10.309Z,14.30
2022-11-15T12:55:03.030Z,14.40
2022-11-15T12:57:52.320Z,14.50
2022-11-15T13:00:41.806Z,14.50
2022-11-15T13:03:30.858Z,14.50
2022-11-15T13:06:40.323Z,14.50
2022-11-15T13:09:46.960Z,14.60
2022-11-15T13:12:52.109Z,14.60
2022-11-15T13:15:47.663Z,14.60
2022-11-15T13:18:41.400Z,14.50
2022-11-15T13:22:00.221Z,14.50
2022-11-15T13:24:51.132Z,14.50
2022-11-15T13:27:39.046Z,14.50
2022-11-15T13:30:29.851Z,14.50
2022-11-15T13:33:20.854Z,14.50
2022-11-15T13:36:11.401Z,14.50
2022-11-15T13:39:01.997Z,14.60
2022-11-15T13:41:51.648Z,14.50
2022-11-15T13:44:39.499Z,14.50
2022-11-15T13:47:28.939Z,14.40
2022-11-15T13:50:18.454Z,14.40
2022-11-15T13:53:07.033Z,14.40
2022-11-15T13:55:55.955Z,14.40
2022-11-15T13:58:43.965Z,14.40
2022-11-15T14:01:34.071Z,14.40
2022-11-15T14:04:23.135Z,14.30
2022-11-15T14:07:18.741Z,14.30
2022-11-15T14:10:19.149Z,14.30
2022-11-15T14:13:12.500Z,14.30
2022-11-15T14:16:15.379Z,14.30
2022-11-15T14:19:06.820Z,14.20
2022-11-15T14:22:11.904Z,14.20
2022-11-15T14:25:10.304Z,14.20
2022-11-15T14:28:16.449Z,14.20
2022-11-15T14:31:08.940Z,14.20
2022-11-15T14:33:56.924Z,14.20
2022-11-15T14:36:44.887Z,14.10
2022-11-15T14:39:32.755Z,14.10
2022-11-15T14:42:23.337Z,14.10
2022-11-15T14:45:15.238Z,14.00
2022-11-15T14:48:03.142Z,14.00
2022-11-15T14:50:51.488Z,13.90
2022-11-15T14:53:39.548Z,13.90
2022-11-15T14:56:27.699Z,13.90
2022-11-15T14:59:17.204Z,13.90
2022-11-15T15:02:10.613Z,13.90
2022-11-15T15:05:02.042Z,14.00
2022-11-15T15:07:51.432Z,13.90
2022-11-15T15:10:41.718Z,13.80
2022-11-15T15:13:31.363Z,13.80
2022-11-15T15:16:20.646Z,13.80
2022-11-15T15:19:08.550Z,13.80
2022-11-15T15:21:56.498Z,13.80
2022-11-15T15:24:44.416Z,13.70
2022-11-15T15:27:32.374Z,13.70
2022-11-15T15:30:20.836Z,13.60
2022-11-15T15:33:10.142Z,13.60
2022-11-15T15:35:58.308Z,13.60
2022-11-15T15:38:47.651Z,13.50
2022-11-15T15:41:35.580Z,13.60
2022-11-15T15:44:23.541Z,13.50
2022-11-15T15:47:12.999Z,13.50
2022-11-15T15:50:02.356Z,13.50
2022-11-15T15:52:50.404Z,13.40
2022-11-15T15:55:39.729Z,13.40
2022-11-15T15:58:27.838Z,13.30
2022-11-15T16:01:15.743Z,13.30
2022-11-15T16:04:03.728Z,13.30
2022-11-15T16:06:53.926Z,13.20
2022-11-15T16:09:59.554Z,13.20
2022-11-15T16:12:47.641Z,13.10
2022-11-15T16:15:36.854Z,13.10
2022-11-15T16:18:24.764Z,13.10
2022-11-15T16:21:12.836Z,13.00
2022-11-15T16:24:02.571Z,13.10
2022-11-15T16:26:50.911Z,13.00
2022-11-15T16:29:38.839Z,13.00
2022-11-15T16:32:26.733Z,13.00
2022-11-15T16:35:15.160Z,13.00
2022-11-15T16:38:03.129Z,13.00
2022-11-15T16:40:52.386Z,12.90
2022-11-15T16:43:40.270Z,12.90
2022-11-15T16:46:28.808Z,12.90
2022-11-15T16:49:17.034Z,12.90
2022-11-15T16:52:05.068Z,12.90
2022-11-15T16:54:53.114Z,12.90
2022-11-15T16:57:42.442Z,12.90
2022-11-15T17:00:30.378Z,12.90
2022-11-15T17:03:18.416Z,12.90
2022-11-15T17:06:06.663Z,12.90
2022-11-15T17:08:54.879Z,12.90
2022-11-15T17:11:43.127Z,12.90
2022-11-15T17:14:32.388Z,12.80
2022-11-15T17:17:20.534Z,12.80
2022-11-15T17:20:10.426Z,12.80
2022-11-15T17:22:58.272Z,12.80
2022-11-15T17:25:46.097Z,12.80
2022-11-15T17:28:34.599Z,12.70
2022-11-15T17:31:25.359Z,12.70
2022-11-15T17:34:13.258Z,12.70
2022-11-15T17:37:01.183Z,12.70
2022-11-15T17:39:49.207Z,12.60
2022-11-15T17:42:37.269Z,12.60
2022-11-15T17:45:25.128Z,12.60
2022-11-15T17:48:14.335Z,12.60
2022-11-15T17:51:03.407Z,12.60
2022-11-15T17:53:51.674Z,12.60
2022-11-15T17:56:40.748Z,12.60
2022-11-15T17:59:28.664Z,12.70
2022-11-15T18:02:16.994Z,12.60
2022-11-15T18:05:07.227Z,12.60
2022-11-15T18:07:55.460Z,12.60
2022-11-15T18:10:43.355Z,12.60
2022-11-15T18:13:31.566Z,12.60
2022-11-15T18:16:20.777Z,12.50
2022-11-15T18:19:15.469Z,12.60
2022-11-15T18:22:07.198Z,12.60
2022-11-15T18:24:55.389Z,12.50
2022-11-15T18:27:43.297Z,12.50
2022-11-15T18:30:31.218Z,12.50
2022-11-15T18:33:19.627Z,12.50
2022-11-15T18:36:09.131Z,12.50
2022-11-15T18:38:59.056Z,12.50
2022-11-15T18:41:47.737Z,12.50
2022-11-15T18:44:35.639Z,12.50
2022-11-15T18:47:23.495Z,12.50
2022-11-15T18:50:11.351Z,12.50
2022-11-15T18:53:01.192Z,12.50
2022-11-15T18:55:50.424Z,12.60
2022-11-15T18:58:39.462Z,12.60
2022-11-15T19:01:28.214Z,12.60
2022-11-15T19:04:19.567Z,12.60
2022-11-15T19:07:07.509Z,12.60
2022-11-15T19:09:56.147Z,12.60
2022-11-15T19:12:49.482Z,12.60
2022-11-15T19:15:37.369Z,12.60
2022-11-15T19:18:25.259Z,12.60
2022-11-15T19:21:16.185Z,12.60
2022-11-15T19:24:04.406Z,12.60
2022-11-15T19:26:54.816Z,12.70
2022-11-15T19:29:45.145Z,12.60
2022-11-15T19:32:33.041Z,12.60
2022-11-15T19:35:20.971Z,12.60
2022-11-15T19:38:08.855Z,12.60
2022-11-15T19:40:58.850Z,12.60
2022-11-15T19:43:47.940Z,12.60
2022-11-15T19:46:40.355Z,12.60
2022-11-15T19:49:29.164Z,12.50
2022-11-15T19:52:19.060Z,12.50
2022-11-15T19:55:10.481Z,12.50
2022-11-15T19:57:58.344Z,12.40
2022-11-15T20:00:46.315Z,12.40
2022-11-15T20:03:36.902Z,12.30
2022-11-15T20:06:29.416Z,12.30
2022-11-15T20:09:17.521Z,12.40
2022-11-15T20:12:05.528Z,12.30
2022-11-15T20:14:54.431Z,12.30
2022-11-15T20:17:44.340Z,12.20
2022-11-15T20:20:33.541Z,12.30
2022-11-15T20:23:21.391Z,12.20
2022-11-15T20:26:10.087Z,12.20
2022-11-15T20:29:01.347Z,12.20
2022-11-15T20:31:49.515Z,12.20
2022-11-15T20:34:37.759Z,12.20
2022-11-15T20:37:27.002Z,12.20
2022-11-15T20:40:15.010Z,12.20
2022-11-15T20:43:03.138Z,12.20
2022-11-15T20:45:51.543Z,12.20
2022-11-15T20:48:39.824Z,12.30
2022-11-15T20:51:27.710Z,12.20
2022-11-15T20:54:18.234Z,12.20
2022-11-15T20:57:06.585Z,12.20
2022-11-15T20:59:56.356Z,12.20
2022-11-15T21:02:44.527Z,12.20
2022-11-15T21:05:32.621Z,12.20
2022-11-15T21:08:20.493Z,12.20
2022-11-15T21:11:27.773Z,12.20
2022-11-15T21:14:15.838Z,12.20
2022-11-15T21:17:03.779Z,12.20
2022-11-15T21:19:51.641Z,12.20
2022-11-15T21:22:39.686Z,12.20
2022-11-15T21:25:27.583Z,12.20
2022-11-15T21:28:16.925Z,12.20
2022-11-15T21:31:04.816Z,12.20
2022-11-15T21:33:52.727Z,12.20
2022-11-15T21:36:40.681Z,12.20
2022-11-15T21:39:28.784Z,12.20
2022-11-15T21:42:16.671Z,12.20
2022-11-15T21:45:06.652Z,12.20
2022-11-15T21:47:54.809Z,12.20
2022-11-15T21:50:42.850Z,12.20
2022-11-15T21:53:31.717Z,12.10
2022-11-15T21:56:19.669Z,12.20
2022-11-15T21:59:07.761Z,12.20
2022-11-15T22:02:14.296Z,12.20
2022-11-15T22:05:02.180Z,12.20
2022-11-15T22:07:50.248Z,12.20
2022-11-15T22:10:38.083Z,12.20
2022-11-15T22:13:26.406Z,12.20
2022-11-15T22:16:14.373Z,12.20
2022-11-15T22:19:03.820Z,12.20
2022-11-15T22:21:51.710Z,12.20
2022-11-15T22:24:41.979Z,12.20
2022-11-15T22:27:29.896Z,12.20
2022-11-15T22:30:18.586Z,12.20
2022-11-15T22:33:06.685Z,12.20
2022-11-15T22:35:56.311Z,12.20
2022-11-15T22:38:44.686Z,12.20
2022-11-15T22:41:32.917Z,12.20
2022-11-15T22:44:22.111Z,12.20
2022-11-15T22:47:10.402Z,12.20
2022-11-15T22:49:58.382Z,12.20
2022-11-15T22:52:47.783Z,12.20
2022-11-15T22:55:35.710Z,12.20
2022-11-15T22:58:24.441Z,12.10
2022-11-15T23:01:19.495Z,12.20
2022-11-15T23:04:07.602Z,12.20
2022-11-15T23:06:55.726Z,12.20
2022-11-15T23:09:49.252Z,12.20
2022-11-15T23:12:57.601Z,12.20
2022-11-15T23:16:03.652Z,12.20
2022-11-15T23:18:52.198Z,12.20
2022-11-15T23:21:58.722Z,12.10
2022-11-15T23:24:48.241Z,12.10
2022-11-15T23:27:36.698Z,12.10
2022-11-15T23:30:42.366Z,12.10
2022-11-15T23:33:47.882Z,12.20
2022-11-15T23:36:36.238Z,12.10
2022-11-15T23:39:24.215Z,12.10
2022-11-15T23:42:20.101Z,12.00
2022-11-15T23:45:08.607Z,12.00
2022-11-15T23:48:01.123Z,12.00
2022-11-15T23:50:49.760Z,12.00
2022-11-15T23:53:37.655Z,11.90
2022-11-15T23:56:25.985Z,11.90
2022-11-15T23:59:15.328Z,11.90
